createdAt,value
2023-03-24T00:01:08.719Z,100.00
2023-03-24T00:03:38.121Z,100.00
2023-03-24T00:06:08.732Z,100.00
2023-03-24T00:08:38.228Z,100.00
2023-03-24T00:11:11.641Z,100.00
2023-03-24T00:13:40.242Z,100.00
2023-03-24T00:16:10.497Z,100.00
2023-03-24T00:18:39.356Z,100.00
2023-03-24T00:21:09.169Z,100.00
2023-03-24T00:23:37.127Z,100.00
2023-03-24T00:26:08.955Z,100.00
2023-03-24T00:28:39.008Z,100.00
2023-03-24T00:31:08.744Z,100.00
2023-03-24T00:33:37.719Z,100.00
2023-03-24T00:36:08.225Z,100.00
2023-03-24T00:38:36.418Z,100.00
2023-03-24T00:41:04.290Z,100.00
2023-03-24T00:43:33.781Z,100.00
2023-03-24T00:46:04.030Z,100.00
2023-03-24T00:48:38.067Z,100.00
2023-03-24T00:51:10.920Z,100.00
2023-03-24T00:53:43.745Z,100.00
2023-03-24T00:56:15.653Z,100.00
2023-03-24T00:58:45.023Z,100.00
2023-03-24T01:01:13.018Z,100.00
2023-03-24T01:03:50.721Z,100.00
2023-03-24T01:06:22.296Z,100.00
2023-03-24T01:08:53.770Z,100.00
2023-03-24T01:11:24.322Z,100.00
2023-03-24T01:13:55.429Z,100.00
2023-03-24T01:16:25.884Z,100.00
2023-03-24T01:18:54.075Z,100.00
2023-03-24T01:21:22.108Z,100.00
2023-03-24T01:23:50.171Z,100.00
2023-03-24T01:26:18.147Z,100.00
2023-03-24T01:28:46.106Z,100.00
2023-03-24T01:31:15.662Z,100.00
2023-03-24T01:33:43.739Z,100.00
2023-03-24T01:36:12.165Z,100.00
2023-03-24T01:38:40.126Z,100.00
2023-03-24T01:41:08.803Z,100.00
2023-03-24T01:43:37.430Z,100.00
2023-03-24T01:46:21.817Z,100.00
2023-03-24T01:48:55.284Z,100.00
2023-03-24T01:51:26.376Z,100.00
2023-03-24T01:53:58.974Z,100.00
2023-03-24T01:56:28.243Z,100.00
2023-03-24T01:58:59.783Z,100.00
2023-03-24T02:01:45.047Z,100.00
2023-03-24T02:04:48.560Z,100.00
2023-03-24T02:07:24.637Z,100.00
2023-03-24T02:09:52.628Z,100.00
2023-03-24T02:12:20.710Z,100.00
2023-03-24T02:14:49.531Z,100.00
2023-03-24T02:17:45.187Z,100.00
2023-03-24T02:20:47.877Z,100.00
2023-03-24T02:24:03.504Z,100.00
2023-03-24T02:26:54.465Z,100.00
2023-03-24T02:30:04.202Z,100.00
2023-03-24T02:33:08.857Z,100.00
2023-03-24T02:36:09.941Z,100.00
2023-03-24T02:39:02.053Z,100.00
2023-03-24T02:41:35.229Z,100.00
2023-03-24T02:44:11.683Z,100.00
2023-03-24T02:46:47.265Z,100.00
2023-03-24T02:49:27.374Z,100.00
2023-03-24T02:52:01.400Z,100.00
2023-03-24T02:54:39.077Z,100.00
2023-03-24T02:57:13.498Z,100.00
2023-03-24T03:00:26.208Z,100.00
2023-03-24T03:03:20.727Z,100.00
2023-03-24T03:05:54.053Z,100.00
2023-03-24T03:08:24.808Z,100.00
2023-03-24T03:10:54.531Z,100.00
2023-03-24T03:13:27.728Z,100.00
2023-03-24T03:15:59.263Z,100.00
2023-03-24T03:18:33.061Z,100.00
2023-03-24T03:21:06.266Z,100.00
2023-03-24T03:23:39.263Z,100.00
2023-03-24T03:26:13.463Z,100.00
2023-03-24T03:28:50.044Z,100.00
2023-03-24T03:31:23.794Z,100.00
2023-03-24T03:33:57.130Z,100.00
2023-03-24T03:36:30.394Z,100.00
2023-03-24T03:39:04.961Z,100.00
2023-03-24T03:41:33.021Z,100.00
2023-03-24T03:44:02.542Z,100.00
2023-03-24T03:46:30.709Z,100.00
2023-03-24T03:48:59.403Z,100.00
2023-03-24T03:51:27.384Z,100.00
2023-03-24T03:54:01.128Z,100.00
2023-03-24T03:56:33.703Z,100.00
2023-03-24T03:59:28.729Z,100.00
2023-03-24T04:01:58.511Z,100.00
2023-03-24T04:04:59.781Z,100.00
2023-03-24T04:07:48.873Z,100.00
2023-03-24T04:11:01.992Z,100.00
2023-03-24T04:13:38.914Z,100.00
2023-03-24T04:16:45.487Z,100.00
2023-03-24T04:19:34.841Z,100.00
2023-03-24T04:22:14.244Z,100.00
2023-03-24T04:24:49.824Z,100.00
2023-03-24T04:27:27.460Z,100.00
2023-03-24T04:30:06.225Z,100.00
2023-03-24T04:32:43.192Z,100.00
2023-03-24T04:35:14.748Z,100.00
2023-03-24T04:38:04.845Z,100.00
2023-03-24T04:40:41.876Z,100.00
2023-03-24T04:43:13.867Z,100.00
2023-03-24T04:45:42.169Z,100.00
2023-03-24T04:48:30.385Z,100.00
2023-03-24T04:51:12.274Z,100.00
2023-03-24T04:53:53.554Z,100.00
2023-03-24T04:56:40.345Z,100.00
2023-03-24T04:59:13.034Z,100.00
2023-03-24T05:01:41.032Z,100.00
2023-03-24T05:04:27.143Z,100.00
2023-03-24T05:06:56.149Z,100.00
2023-03-24T05:09:27.184Z,100.00
2023-03-24T05:11:55.028Z,100.00
2023-03-24T05:14:24.763Z,100.00
2023-03-24T05:16:53.095Z,100.00
2023-03-24T05:19:22.395Z,100.00
2023-03-24T05:21:53.959Z,100.00
2023-03-24T05:24:24.318Z,100.00
2023-03-24T05:26:52.110Z,100.00
2023-03-24T05:29:21.411Z,100.00
2023-03-24T05:31:49.546Z,100.00
2023-03-24T05:34:19.360Z,100.00
2023-03-24T05:37:04.684Z,100.00
2023-03-24T05:39:32.485Z,100.00
2023-03-24T05:42:08.047Z,100.00
2023-03-24T05:44:36.093Z,100.00
2023-03-24T05:47:12.716Z,100.00
2023-03-24T05:49:40.808Z,100.00
2023-03-24T05:52:10.581Z,100.00
2023-03-24T05:54:40.518Z,100.00
2023-03-24T05:57:17.591Z,100.00
2023-03-24T06:00:16.834Z,100.00
2023-03-24T06:03:06.268Z,100.00
2023-03-24T06:05:45.828Z,100.00
2023-03-24T06:08:17.161Z,100.00
2023-03-24T06:10:45.040Z,100.00
2023-03-24T06:13:12.942Z,100.00
2023-03-24T06:15:46.908Z,100.00
2023-03-24T06:18:32.017Z,100.00
2023-03-24T06:21:04.154Z,100.00
2023-03-24T06:23:35.651Z,100.00
2023-03-24T06:26:12.591Z,100.00
2023-03-24T06:28:59.618Z,100.00
2023-03-24T06:31:32.826Z,100.00
2023-03-24T06:34:00.750Z,100.00
2023-03-24T06:36:28.647Z,100.00
2023-03-24T06:38:58.029Z,100.00
2023-03-24T06:41:27.424Z,100.00
2023-03-24T06:43:59.572Z,100.00
2023-03-24T06:46:27.598Z,100.00
2023-03-24T06:48:56.403Z,100.00
2023-03-24T06:51:24.147Z,100.00
2023-03-24T06:53:51.969Z,100.00
2023-03-24T06:56:21.633Z,100.00
2023-03-24T06:58:54.941Z,100.00
2023-03-24T07:01:35.040Z,100.00
2023-03-24T07:04:25.694Z,100.00
2023-03-24T07:07:12.544Z,100.00
2023-03-24T07:09:46.177Z,100.00
2023-03-24T07:12:15.782Z,100.00
2023-03-24T07:14:43.882Z,100.00
2023-03-24T07:17:12.913Z,100.00
2023-03-24T07:19:54.304Z,100.00
2023-03-24T07:22:48.305Z,100.00
2023-03-24T07:25:34.887Z,100.00
2023-03-24T07:28:13.769Z,100.00
2023-03-24T07:30:41.538Z,100.00
2023-03-24T07:33:12.015Z,100.00
2023-03-24T07:35:41.104Z,100.00
2023-03-24T07:38:09.029Z,100.00
2023-03-24T07:40:36.968Z,100.00
2023-03-24T07:43:06.587Z,100.00
2023-03-24T07:45:54.395Z,100.00
2023-03-24T07:48:22.145Z,100.00
2023-03-24T07:50:53.420Z,100.00
2023-03-24T07:53:47.712Z,100.00
2023-03-24T07:56:22.956Z,100.00
2023-03-24T07:58:56.941Z,100.00
2023-03-24T08:01:32.875Z,100.00
2023-03-24T08:04:04.680Z,100.00
2023-03-24T08:06:52.816Z,100.00
2023-03-24T08:09:21.850Z,100.00
2023-03-24T08:11:49.629Z,100.00
2023-03-24T08:14:17.508Z,100.00
2023-03-24T08:16:46.884Z,100.00
2023-03-24T08:19:14.840Z,100.00
2023-03-24T08:21:42.624Z,100.00
2023-03-24T08:24:10.377Z,100.00
2023-03-24T08:26:38.093Z,100.00
2023-03-24T08:29:06.015Z,100.00
2023-03-24T08:31:34.255Z,100.00
2023-03-24T08:34:04.722Z,100.00
2023-03-24T08:36:32.536Z,100.00
2023-03-24T08:39:01.380Z,100.00
2023-03-24T08:41:34.733Z,100.00
2023-03-24T08:44:05.622Z,100.00
2023-03-24T08:46:34.905Z,100.00
2023-03-24T08:49:05.477Z,100.00
2023-03-24T08:51:33.776Z,100.00
2023-03-24T08:54:03.616Z,100.00
2023-03-24T08:56:31.560Z,100.00
2023-03-24T08:58:59.334Z,99.46
2023-03-24T09:01:27.316Z,99.37
2023-03-24T09:03:55.119Z,100.00
2023-03-24T09:06:24.194Z,100.00
2023-03-24T09:08:51.898Z,99.95
2023-03-24T09:11:21.373Z,99.60
2023-03-24T09:13:49.966Z,100.00
2023-03-24T09:16:18.426Z,100.00
2023-03-24T09:18:47.475Z,99.43
2023-03-24T09:21:15.361Z,99.43
2023-03-24T09:23:44.471Z,96.83
2023-03-24T09:26:12.305Z,97.96
2023-03-24T09:28:40.150Z,98.68
2023-03-24T09:31:08.028Z,97.83
2023-03-24T09:33:35.915Z,94.97
2023-03-24T09:36:04.350Z,93.19
2023-03-24T09:38:33.592Z,93.16
2023-03-24T09:41:04.321Z,92.81
2023-03-24T09:43:38.752Z,93.43
2023-03-24T09:46:13.306Z,93.12
2023-03-24T09:48:45.378Z,92.90
2023-03-24T09:51:21.410Z,93.85
2023-03-24T09:53:56.491Z,93.22
2023-03-24T09:56:29.620Z,94.82
2023-03-24T09:59:04.878Z,92.60
2023-03-24T10:01:34.391Z,91.85
2023-03-24T10:04:02.764Z,93.13
2023-03-24T10:06:34.551Z,93.07
2023-03-24T10:09:17.742Z,93.47
2023-03-24T10:11:55.903Z,95.48
2023-03-24T10:14:40.392Z,89.56
2023-03-24T10:17:17.145Z,87.02
2023-03-24T10:19:59.688Z,87.77
2023-03-24T10:22:37.232Z,84.50
2023-03-24T10:25:14.700Z,81.78
2023-03-24T10:27:49.908Z,85.00
2023-03-24T10:30:20.231Z,84.07
2023-03-24T10:32:48.047Z,81.88
2023-03-24T10:35:19.211Z,83.50
2023-03-24T10:37:47.411Z,84.00
2023-03-24T10:40:18.242Z,82.38
2023-03-24T10:42:49.880Z,83.83
2023-03-24T10:45:36.573Z,77.35
2023-03-24T10:48:05.403Z,71.97
2023-03-24T10:50:35.971Z,72.87
2023-03-24T10:53:09.999Z,68.67
2023-03-24T10:55:40.023Z,70.74
2023-03-24T10:58:19.640Z,71.53
2023-03-24T11:00:48.684Z,67.62
2023-03-24T11:03:19.078Z,67.75
2023-03-24T11:05:47.216Z,65.95
2023-03-24T11:08:27.065Z,62.81
2023-03-24T11:10:55.107Z,63.22
2023-03-24T11:13:31.709Z,65.97
2023-03-24T11:16:11.153Z,65.67
2023-03-24T11:18:39.296Z,65.47
2023-03-24T11:21:08.232Z,61.58
2023-03-24T11:23:40.261Z,61.03
2023-03-24T11:26:14.288Z,58.22
2023-03-24T11:28:47.329Z,59.88
2023-03-24T11:31:24.652Z,62.73
2023-03-24T11:33:58.835Z,63.75
2023-03-24T11:36:49.770Z,66.30
2023-03-24T11:39:21.328Z,66.72
2023-03-24T11:41:59.939Z,68.29
2023-03-24T11:44:33.571Z,70.79
2023-03-24T11:47:07.048Z,71.40
2023-03-24T11:49:40.852Z,70.85
2023-03-24T11:52:20.041Z,71.97
2023-03-24T11:54:48.033Z,70.25
2023-03-24T11:57:21.803Z,67.07
2023-03-24T11:59:58.252Z,63.70
2023-03-24T12:02:38.029Z,61.19
2023-03-24T12:05:20.560Z,63.81
2023-03-24T12:08:30.523Z,66.01
2023-03-24T12:11:09.353Z,65.49
2023-03-24T12:13:39.863Z,67.54
2023-03-24T12:16:25.330Z,62.06
2023-03-24T12:19:24.906Z,58.86
2023-03-24T12:22:03.804Z,57.91
2023-03-24T12:24:48.449Z,57.74
2023-03-24T12:27:25.639Z,55.92
2023-03-24T12:30:02.175Z,55.13
2023-03-24T12:32:41.736Z,56.67
2023-03-24T12:35:33.915Z,56.01
2023-03-24T12:38:13.076Z,52.84
2023-03-24T12:41:03.186Z,49.98
2023-03-24T12:43:39.956Z,49.67
2023-03-24T12:46:19.501Z,49.58
2023-03-24T12:49:15.190Z,50.89
2023-03-24T12:51:54.364Z,50.66
2023-03-24T12:54:35.476Z,49.00
2023-03-24T12:57:07.692Z,48.38
2023-03-24T12:59:40.539Z,47.59
2023-03-24T13:02:20.773Z,50.24
2023-03-24T13:04:51.868Z,51.65
2023-03-24T13:07:25.775Z,51.56
2023-03-24T13:09:59.479Z,53.19
2023-03-24T13:12:32.306Z,53.36
2023-03-24T13:15:06.177Z,53.54
2023-03-24T13:17:40.114Z,53.93
2023-03-24T13:20:27.132Z,55.19
2023-03-24T13:22:56.858Z,56.64
2023-03-24T13:25:34.268Z,53.10
2023-03-24T13:28:08.857Z,51.86
2023-03-24T13:30:39.429Z,51.52
2023-03-24T13:33:13.607Z,50.88
2023-03-24T13:35:57.831Z,52.96
2023-03-24T13:38:34.980Z,52.29
2023-03-24T13:41:05.914Z,53.43
2023-03-24T13:43:34.925Z,54.41
2023-03-24T13:46:04.179Z,52.62
2023-03-24T13:48:37.641Z,53.26
2023-03-24T13:51:17.022Z,51.17
2023-03-24T13:53:47.243Z,51.50
2023-03-24T13:56:25.305Z,51.98
2023-03-24T13:59:10.449Z,52.56
2023-03-24T14:01:40.896Z,50.42
2023-03-24T14:04:28.224Z,48.23
2023-03-24T14:06:58.847Z,48.99
2023-03-24T14:09:28.488Z,49.77
2023-03-24T14:12:20.417Z,50.59
2023-03-24T14:15:15.491Z,51.52
2023-03-24T14:17:45.951Z,61.60
2023-03-24T14:20:25.724Z,77.94
2023-03-24T14:22:55.593Z,91.03
2023-03-24T14:25:27.140Z,96.14
2023-03-24T14:28:07.221Z,95.18
2023-03-24T14:30:38.083Z,94.06
2023-03-24T14:33:06.659Z,87.32
2023-03-24T14:35:41.930Z,87.74
2023-03-24T14:38:26.073Z,86.84
2023-03-24T14:40:58.823Z,85.00
2023-03-24T14:43:28.473Z,82.49
2023-03-24T14:46:01.919Z,84.83
2023-03-24T14:48:33.953Z,79.63
2023-03-24T14:51:07.023Z,78.42
2023-03-24T14:53:38.789Z,72.07
2023-03-24T14:56:10.364Z,71.46
2023-03-24T14:58:43.913Z,70.25
2023-03-24T15:01:12.361Z,67.98
2023-03-24T15:03:50.073Z,65.07
2023-03-24T15:06:19.987Z,63.29
2023-03-24T15:08:53.261Z,60.43
2023-03-24T15:11:25.912Z,60.27
2023-03-24T15:13:54.497Z,60.57
2023-03-24T15:16:25.346Z,60.04
2023-03-24T15:21:29.915Z,61.06
2023-03-24T15:24:00.978Z,61.76
2023-03-24T15:26:30.840Z,59.57
2023-03-24T15:29:00.622Z,61.29
2023-03-24T15:31:31.142Z,59.85
2023-03-24T15:34:07.523Z,59.52
2023-03-24T15:36:40.507Z,61.68
2023-03-24T15:39:28.618Z,61.83
2023-03-24T15:41:56.799Z,61.65
2023-03-24T15:44:27.761Z,61.88
2023-03-24T15:46:57.582Z,61.31
2023-03-24T15:49:27.722Z,62.58
2023-03-24T15:51:59.948Z,63.64
2023-03-24T15:54:32.420Z,63.53
2023-03-24T15:57:12.750Z,64.07
2023-03-24T15:59:46.802Z,64.35
2023-03-24T16:02:24.369Z,65.69
2023-03-24T16:05:04.026Z,66.70
2023-03-24T16:07:37.660Z,65.71
2023-03-24T16:10:08.752Z,66.90
2023-03-24T16:12:37.863Z,70.06
2023-03-24T16:15:06.870Z,96.99
2023-03-24T16:17:34.708Z,100.00
2023-03-24T16:20:02.492Z,100.00
2023-03-24T16:22:30.323Z,100.00
2023-03-24T16:24:58.327Z,100.00
2023-03-24T16:27:27.466Z,100.00
2023-03-24T16:29:55.823Z,100.00
2023-03-24T16:32:23.694Z,100.00
2023-03-24T16:34:51.452Z,100.00
2023-03-24T16:37:19.376Z,100.00
2023-03-24T16:39:47.076Z,100.00
2023-03-24T16:42:14.956Z,100.00
2023-03-24T16:44:44.243Z,100.00
2023-03-24T16:47:12.044Z,100.00
2023-03-24T16:49:39.744Z,100.00
2023-03-24T16:52:12.839Z,100.00
2023-03-24T16:54:40.774Z,100.00
2023-03-24T16:57:08.664Z,100.00
2023-03-24T16:59:36.455Z,100.00
2023-03-24T17:02:06.110Z,100.00
2023-03-24T17:04:35.371Z,100.00
2023-03-24T17:07:03.277Z,100.00
2023-03-24T17:09:32.233Z,100.00
2023-03-24T17:12:02.147Z,100.00
2023-03-24T17:14:31.064Z,100.00
2023-03-24T17:16:59.684Z,100.00
2023-03-24T17:19:28.794Z,100.00
2023-03-24T17:22:00.913Z,100.00
2023-03-24T17:24:29.271Z,100.00
2023-03-24T17:26:57.271Z,100.00
2023-03-24T17:29:25.087Z,100.00
2023-03-24T17:31:54.606Z,100.00
2023-03-24T17:34:22.634Z,100.00
2023-03-24T17:36:52.040Z,100.00
2023-03-24T17:39:21.517Z,100.00
2023-03-24T17:41:49.793Z,100.00
2023-03-24T17:44:17.571Z,100.00
2023-03-24T17:46:45.527Z,100.00
2023-03-24T17:49:13.409Z,100.00
2023-03-24T17:51:41.294Z,100.00
2023-03-24T17:54:11.685Z,100.00
2023-03-24T17:56:39.459Z,100.00
2023-03-24T17:59:07.187Z,100.00
2023-03-24T18:01:39.294Z,100.00
2023-03-24T18:04:07.485Z,100.00
2023-03-24T18:06:35.371Z,100.00
2023-03-24T18:09:03.321Z,100.00
2023-03-24T18:11:32.429Z,100.00
2023-03-24T18:14:00.203Z,100.00
2023-03-24T18:16:30.217Z,100.00
2023-03-24T18:19:12.302Z,100.00
2023-03-24T18:21:40.302Z,100.00
2023-03-24T18:24:08.995Z,100.00
2023-03-24T18:26:38.146Z,100.00
2023-03-24T18:29:06.849Z,100.00
2023-03-24T18:31:34.845Z,100.00
2023-03-24T18:34:03.937Z,100.00
2023-03-24T18:36:31.667Z,100.00
2023-03-24T18:39:01.250Z,100.00
2023-03-24T18:41:30.473Z,100.00
2023-03-24T18:44:00.827Z,100.00
2023-03-24T18:46:31.838Z,100.00
2023-03-24T18:48:59.772Z,100.00
2023-03-24T18:51:28.224Z,100.00
2023-03-24T18:53:56.584Z,100.00
2023-03-24T18:56:25.499Z,100.00
2023-03-24T18:58:53.475Z,100.00
2023-03-24T19:01:23.454Z,100.00
2023-03-24T19:03:52.716Z,100.00
2023-03-24T19:13:36.146Z,100.00
2023-03-24T19:16:04.790Z,100.00
2023-03-24T19:18:33.934Z,100.00
2023-03-24T19:21:02.064Z,100.00
2023-03-24T19:23:30.855Z,100.00
2023-03-24T19:25:58.743Z,100.00
2023-03-24T19:28:46.445Z,100.00
2023-03-24T19:31:18.805Z,100.00
2023-03-24T19:33:48.234Z,100.00
2023-03-24T19:36:16.419Z,100.00
2023-03-24T19:38:44.209Z,100.00
2023-03-24T19:41:14.549Z,100.00
2023-03-24T19:43:42.524Z,100.00
2023-03-24T19:46:10.488Z,100.00
2023-03-24T19:48:38.505Z,100.00
2023-03-24T19:51:07.704Z,100.00
2023-03-24T19:53:35.502Z,100.00
2023-03-24T19:56:04.111Z,100.00
2023-03-24T19:58:31.979Z,100.00
2023-03-24T20:00:59.779Z,100.00
2023-03-24T20:03:29.195Z,100.00
2023-03-24T20:05:57.045Z,100.00
2023-03-24T20:08:26.598Z,100.00
2023-03-24T20:10:54.365Z,100.00
2023-03-24T20:13:24.016Z,100.00
2023-03-24T20:15:51.948Z,100.00
2023-03-24T20:18:19.903Z,100.00
2023-03-24T20:20:47.649Z,100.00
2023-03-24T20:23:15.460Z,100.00
2023-03-24T20:25:44.770Z,100.00
2023-03-24T20:28:12.985Z,100.00
2023-03-24T20:30:42.740Z,100.00
2023-03-24T20:33:10.617Z,100.00
2023-03-24T20:35:39.771Z,100.00
2023-03-24T20:38:07.543Z,100.00
2023-03-24T20:40:35.400Z,100.00
2023-03-24T20:43:04.439Z,100.00
2023-03-24T20:45:32.361Z,100.00
2023-03-24T20:48:00.273Z,100.00
2023-03-24T20:50:28.372Z,100.00
2023-03-24T20:52:56.065Z,100.00
2023-03-24T20:55:24.071Z,100.00
2023-03-24T20:57:51.848Z,100.00
2023-03-24T21:00:21.442Z,100.00
2023-03-24T21:02:49.216Z,100.00
2023-03-24T21:05:17.121Z,100.00
2023-03-24T21:07:45.556Z,100.00
2023-03-24T21:10:14.406Z,100.00
2023-03-24T21:12:53.485Z,100.00
2023-03-24T21:15:27.464Z,100.00
2023-03-24T21:17:58.603Z,100.00
2023-03-24T21:20:28.383Z,100.00
2023-03-24T21:22:56.304Z,100.00
2023-03-24T21:25:26.846Z,100.00
2023-03-24T21:27:57.346Z,100.00
2023-03-24T21:30:27.584Z,100.00
2023-03-24T21:32:57.528Z,100.00
2023-03-24T21:35:25.917Z,100.00
2023-03-24T21:37:53.924Z,100.00
2023-03-24T21:40:23.871Z,100.00
2023-03-24T21:42:53.564Z,100.00
2023-03-24T21:45:24.179Z,100.00
2023-03-24T21:47:54.969Z,100.00
2023-03-24T21:50:23.990Z,100.00
2023-03-24T21:52:52.886Z,100.00
2023-03-24T21:55:22.358Z,100.00
2023-03-24T21:57:51.724Z,100.00
2023-03-24T22:00:22.714Z,100.00
2023-03-24T22:02:58.211Z,100.00
2023-03-24T22:05:27.837Z,100.00
2023-03-24T22:07:55.927Z,100.00
2023-03-24T22:10:23.848Z,100.00
2023-03-24T22:12:52.609Z,100.00
2023-03-24T22:15:20.755Z,100.00
2023-03-24T22:17:48.592Z,100.00
2023-03-24T22:20:18.378Z,100.00
2023-03-24T22:22:46.538Z,100.00
2023-03-24T22:25:16.317Z,100.00
2023-03-24T22:27:44.091Z,100.00
2023-03-24T22:30:13.907Z,100.00
2023-03-24T22:32:42.168Z,100.00
2023-03-24T22:35:10.985Z,100.00
2023-03-24T22:37:40.322Z,100.00
2023-03-24T22:40:09.532Z,100.00
2023-03-24T22:42:37.287Z,100.00
2023-03-24T22:45:05.954Z,100.00
2023-03-24T22:47:33.749Z,100.00
2023-03-24T22:50:01.540Z,100.00
2023-03-24T22:52:29.287Z,100.00
2023-03-24T22:54:58.380Z,100.00
2023-03-24T22:57:26.109Z,100.00
2023-03-24T22:59:53.843Z,100.00
2023-03-24T23:02:24.474Z,100.00
2023-03-24T23:04:52.690Z,100.00
2023-03-24T23:07:23.243Z,100.00
2023-03-24T23:09:53.287Z,100.00
2023-03-24T23:12:24.929Z,100.00
2023-03-24T23:14:54.286Z,100.00
2023-03-24T23:17:24.107Z,100.00
2023-03-24T23:19:52.559Z,100.00
2023-03-24T23:22:21.157Z,100.00
2023-03-24T23:24:49.099Z,100.00
2023-03-24T23:27:17.395Z,100.00
2023-03-24T23:29:46.608Z,100.00
2023-03-24T23:32:14.556Z,100.00
2023-03-24T23:34:44.088Z,100.00
2023-03-24T23:37:11.853Z,100.00
2023-03-24T23:39:39.580Z,100.00
2023-03-24T23:42:07.271Z,100.00
2023-03-24T23:44:35.027Z,100.00
2023-03-24T23:47:04.184Z,100.00
2023-03-24T23:49:31.919Z,100.00
2023-03-24T23:51:59.719Z,100.00
2023-03-24T23:54:27.487Z,100.00
2023-03-24T23:56:55.206Z,100.00
2023-03-24T23:59:22.997Z,100.00
